Wichita Mid Continent Airport
KICT : rendu visible

Aérodrome :











RETROUVEZ-NOUS SUR...

 
LOGIN :

Register | Disclaimer

   EN    FR    IT 

 















- Airport Elevation : 1333 ft
- IATA code : ICT


KICT - Wichita Mid Continent

CURRENT METAR :
  • 071753Z 05013KT 10SM SCT090 SCT110 SCT160 SCT200 18/M01 A3045 RMK AO2 SLP306 T01781011 10178 20100 57001

EXPIRED METARs :
  • 071653Z 04017G22KT 10SM FEW085 SCT100 SCT130 SCT170 SCT220 17/00 A3045 RMK AO2 SLP305 T01670000
  • 071553Z 04016KT 10SM FEW100 SCT130 SCT170 SCT220 14/00 A3046 RMK AO2 SLP308 T01440000

TAF KICT
Valid from the 07 at 18:00 until the 08 at 18:00 UTC


071720Z 0718/0818 04017KT P6SM SCT100
FM080100 04011KT P6SM SCT110
FM081400 12008KT P6SM BKN070
FM081700 15009KT P6SM BKN090
KZKC FIR / North America





SOURCES & CREDITS :

   NOAA       Earth
Advisory